createdAt,value
2016-02-15T00:00:02.360Z,86
2016-02-15T00:01:03.363Z,86
2016-02-15T00:02:04.930Z,86
2016-02-15T00:03:06.496Z,86
2016-02-15T00:04:08.107Z,86
2016-02-15T00:05:09.625Z,86
2016-02-15T00:06:11.176Z,86
2016-02-15T00:07:12.756Z,86
2016-02-15T00:08:14.306Z,86
2016-02-15T00:09:15.449Z,86
2016-02-15T00:10:17.498Z,86
2016-02-15T00:11:18.501Z,86
2016-02-15T00:12:20.067Z,86
2016-02-15T00:13:21.631Z,86
2016-02-15T00:14:23.181Z,86
2016-02-15T00:15:24.872Z,86
2016-02-15T00:16:26.375Z,86
2016-02-15T00:17:27.892Z,86
2016-02-15T00:18:29.442Z,86
2016-02-15T00:19:31.022Z,86
2016-02-15T00:20:32.636Z,86
2016-02-15T00:21:33.638Z,86
2016-02-15T00:22:35.202Z,86
2016-02-15T00:23:36.768Z,86
2016-02-15T00:24:38.349Z,86
2016-02-15T00:25:39.899Z,86
2016-02-15T00:26:41.463Z,86
2016-02-15T00:27:43.029Z,86
2016-02-15T00:28:44.594Z,86
2016-02-15T00:29:46.174Z,86
2016-02-15T00:30:47.771Z,86
2016-02-15T00:31:48.790Z,86
2016-02-15T00:32:50.338Z,86
2016-02-15T00:33:51.905Z,86
2016-02-15T00:34:53.485Z,86
2016-02-15T00:35:55.034Z,86
2016-02-15T00:36:56.647Z,86
2016-02-15T00:37:58.196Z,86
2016-02-15T00:38:59.745Z,86
2016-02-15T00:40:01.295Z,86
2016-02-15T00:41:02.939Z,86
2016-02-15T00:42:03.926Z,86
2016-02-15T00:43:05.506Z,86
2016-02-15T00:44:07.059Z,86
2016-02-15T00:45:08.624Z,86
2016-02-15T00:46:10.189Z,86
2016-02-15T00:47:11.785Z,86
2016-02-15T00:48:13.320Z,86
2016-02-15T00:49:14.884Z,86
2016-02-15T00:50:16.450Z,86
2016-02-15T00:51:18.062Z,86
2016-02-15T00:52:19.080Z,86
2016-02-15T00:53:20.645Z,86
2016-02-15T00:54:22.195Z,86
2016-02-15T00:55:23.775Z,86
2016-02-15T00:56:25.341Z,86
2016-02-15T00:57:26.891Z,86
2016-02-15T00:58:28.456Z,86
2016-02-15T00:59:30.052Z,86
2016-02-15T01:00:31.601Z,86
2016-02-15T01:01:32.964Z,86
2016-02-15T01:02:33.966Z,85
2016-02-15T01:03:35.031Z,85
2016-02-15T01:04:36.143Z,85
2016-02-15T01:05:37.146Z,85
2016-02-15T01:06:38.227Z,85
2016-02-15T01:07:39.262Z,85
2016-02-15T01:08:40.326Z,85
2016-02-15T01:09:41.376Z,85
2016-02-15T01:10:42.441Z,85
2016-02-15T01:11:43.303Z,85
2016-02-15T01:12:44.304Z,85
2016-02-15T01:13:45.359Z,85
2016-02-15T01:14:46.163Z,85
2016-02-15T01:15:46.936Z,85
2016-02-15T01:16:47.755Z,85
2016-02-15T01:17:48.560Z,85
2016-02-15T01:18:49.590Z,85
2016-02-15T01:19:50.666Z,85
2016-02-15T01:20:53.914Z,85
2016-02-15T01:21:52.819Z,85
2016-02-15T01:22:53.818Z,85
2016-02-15T01:23:54.866Z,85
2016-02-15T01:24:55.931Z,85
2016-02-15T01:25:56.978Z,85
2016-02-15T01:26:58.025Z,85
2016-02-15T01:27:59.137Z,85
2016-02-15T01:29:00.154Z,85
2016-02-15T01:30:01.219Z,85
2016-02-15T01:31:02.269Z,85
2016-02-15T01:32:03.396Z,86
2016-02-15T01:33:04.383Z,85
2016-02-15T01:34:05.448Z,86
2016-02-15T01:35:06.797Z,86
2016-02-15T01:36:08.081Z,86
2016-02-15T01:37:09.411Z,86
2016-02-15T01:38:10.727Z,86
2016-02-15T01:39:12.026Z,86
2016-02-15T01:40:13.576Z,86
2016-02-15T01:41:15.173Z,86
2016-02-15T01:42:16.784Z,86
2016-02-15T01:43:17.787Z,86
2016-02-15T01:44:19.368Z,86
2016-02-15T01:45:20.902Z,86
2016-02-15T01:46:22.467Z,86
2016-02-15T01:47:24.033Z,86
2016-02-15T01:48:25.628Z,86
2016-02-15T01:49:27.210Z,86
2016-02-15T01:50:28.759Z,86
2016-02-15T01:51:30.339Z,86
2016-02-15T01:52:31.952Z,86
2016-02-15T01:53:32.924Z,86
2016-02-15T01:54:34.488Z,86
2016-02-15T01:55:36.085Z,86
2016-02-15T01:56:33.853Z,86
2016-02-15T01:57:35.387Z,86
2016-02-15T01:58:33.156Z,86
2016-02-15T01:59:30.940Z,86
2016-02-15T02:00:28.692Z,86
2016-02-15T02:01:26.461Z,86
2016-02-15T02:02:24.291Z,86
2016-02-15T02:03:25.278Z,86
2016-02-15T02:04:23.047Z,86
2016-02-15T02:05:20.815Z,86
2016-02-15T02:06:18.584Z,87
2016-02-15T02:07:16.602Z,86
2016-02-15T02:08:14.401Z,87
2016-02-15T02:09:12.404Z,87
2016-02-15T02:10:10.407Z,87
2016-02-15T02:11:08.440Z,87
2016-02-15T02:12:06.518Z,87
2016-02-15T02:13:07.509Z,87
2016-02-15T02:14:05.524Z,87
2016-02-15T02:15:03.542Z,87
2016-02-15T02:16:01.561Z,87
2016-02-15T02:16:59.579Z,87
2016-02-15T02:17:57.613Z,87
2016-02-15T02:18:55.662Z,87
2016-02-15T02:19:53.634Z,87
2016-02-15T02:20:51.652Z,87
2016-02-15T02:21:49.670Z,87
2016-02-15T02:22:50.736Z,87
2016-02-15T02:23:48.755Z,87
2016-02-15T02:24:46.772Z,87
2016-02-15T02:25:44.791Z,87
2016-02-15T02:26:42.949Z,87
2016-02-15T02:27:40.859Z,87
2016-02-15T02:28:38.861Z,87
2016-02-15T02:29:36.895Z,87
2016-02-15T02:30:34.899Z,87
2016-02-15T02:31:32.979Z,87
2016-02-15T02:32:33.982Z,87
2016-02-15T02:33:32.015Z,87
2016-02-15T02:34:30.034Z,87
2016-02-15T02:35:28.052Z,87
2016-02-15T02:36:26.055Z,87
2016-02-15T02:37:24.088Z,87
2016-02-15T02:38:22.357Z,87
2016-02-15T02:39:20.641Z,87
2016-02-15T02:40:18.893Z,87
2016-02-15T02:41:17.240Z,87
2016-02-15T02:42:18.243Z,87
2016-02-15T02:43:16.511Z,87
2016-02-15T02:44:14.779Z,87
2016-02-15T02:45:13.048Z,87
2016-02-15T02:46:11.378Z,87
2016-02-15T02:47:09.725Z,87
2016-02-15T02:48:07.884Z,87
2016-02-15T02:49:06.150Z,87
2016-02-15T02:50:04.434Z,87
2016-02-15T02:51:02.764Z,88
2016-02-15T02:52:03.767Z,88
2016-02-15T02:53:02.316Z,88
2016-02-15T02:54:00.819Z,88
2016-02-15T02:54:59.338Z,88
2016-02-15T02:55:57.871Z,88
2016-02-15T02:56:56.405Z,88
2016-02-15T02:57:54.939Z,88
2016-02-15T02:58:53.458Z,88
2016-02-15T02:59:51.991Z,88
2016-02-15T03:00:50.557Z,88
2016-02-15T03:01:51.575Z,88
2016-02-15T03:02:50.109Z,88
2016-02-15T03:03:48.627Z,88
2016-02-15T03:04:47.160Z,88
2016-02-15T03:05:45.680Z,88
2016-02-15T03:06:44.198Z,88
2016-02-15T03:07:42.732Z,88
2016-02-15T03:08:41.251Z,88
2016-02-15T03:09:39.799Z,88
2016-02-15T03:10:38.365Z,88
2016-02-15T03:11:39.368Z,88
2016-02-15T03:12:37.901Z,88
2016-02-15T03:13:36.420Z,88
2016-02-15T03:14:34.953Z,88
2016-02-15T03:15:33.473Z,88
2016-02-15T03:16:32.022Z,88
2016-02-15T03:17:30.525Z,88
2016-02-15T03:18:29.058Z,88
2016-02-15T03:19:27.576Z,88
2016-02-15T03:20:26.173Z,88
2016-02-15T03:21:27.175Z,88
2016-02-15T03:22:25.694Z,88
2016-02-15T03:23:24.212Z,88
2016-02-15T03:24:22.762Z,88
2016-02-15T03:25:21.280Z,88
2016-02-15T03:26:19.814Z,88
2016-02-15T03:27:18.333Z,88
2016-02-15T03:28:16.867Z,88
2016-02-15T03:29:15.385Z,88
2016-02-15T03:30:13.965Z,88
2016-02-15T03:31:14.969Z,88
2016-02-15T03:32:13.486Z,88
2016-02-15T03:33:12.052Z,88
2016-02-15T03:34:10.554Z,88
2016-02-15T03:35:09.088Z,88
2016-02-15T03:36:07.619Z,88
2016-02-15T03:37:06.138Z,88
2016-02-15T03:38:04.687Z,88
2016-02-15T03:39:03.174Z,88
2016-02-15T03:40:02.005Z,88
2016-02-15T03:41:03.024Z,88
2016-02-15T03:42:01.792Z,88
2016-02-15T03:43:00.607Z,88
2016-02-15T03:43:59.095Z,88
2016-02-15T03:44:58.003Z,88
2016-02-15T03:45:56.678Z,88
2016-02-15T03:46:55.446Z,88
2016-02-15T03:47:54.261Z,88
2016-02-15T03:48:53.045Z,88
2016-02-15T03:49:51.845Z,88
2016-02-15T03:50:52.410Z,88
2016-02-15T03:51:51.631Z,88
2016-02-15T03:52:50.400Z,88
2016-02-15T03:53:49.215Z,88
2016-02-15T03:54:47.968Z,88
2016-02-15T03:55:46.752Z,88
2016-02-15T03:56:45.535Z,88
2016-02-15T03:57:44.303Z,88
2016-02-15T03:58:43.088Z,88
2016-02-15T03:59:41.919Z,88
2016-02-15T04:00:42.936Z,88
2016-02-15T04:01:41.721Z,88
2016-02-15T04:02:40.521Z,88
2016-02-15T04:03:39.289Z,88
2016-02-15T04:04:38.057Z,88
2016-02-15T04:05:36.824Z,88
2016-02-15T04:06:35.610Z,88
2016-02-15T04:07:34.393Z,88
2016-02-15T04:08:33.177Z,88
2016-02-15T04:09:32.008Z,88
2016-02-15T04:10:33.135Z,88
2016-02-15T04:11:32.045Z,88
2016-02-15T04:12:30.844Z,88
2016-02-15T04:13:29.862Z,88
2016-02-15T04:14:28.631Z,88
2016-02-15T04:15:27.665Z,88
2016-02-15T04:16:26.495Z,88
2016-02-15T04:17:25.482Z,88
2016-02-15T04:18:24.517Z,88
2016-02-15T04:19:23.597Z,88
2016-02-15T04:20:24.600Z,88
2016-02-15T04:21:23.634Z,88
2016-02-15T04:22:22.683Z,88
2016-02-15T04:23:21.717Z,88
2016-02-15T04:24:20.736Z,88
2016-02-15T04:25:19.785Z,88
2016-02-15T04:26:18.804Z,88
2016-02-15T04:27:17.838Z,88
2016-02-15T04:28:16.855Z,88
2016-02-15T04:29:15.953Z,88
2016-02-15T04:30:16.955Z,88
2016-02-15T04:32:15.023Z,88
2016-02-15T04:33:14.057Z,88
2016-02-15T04:34:16.122Z,88
2016-02-15T04:35:15.171Z,88
2016-02-15T04:36:11.158Z,88
2016-02-15T04:37:10.207Z,88
2016-02-15T04:38:09.239Z,88
2016-02-15T04:39:08.321Z,88
2016-02-15T04:40:09.323Z,88
2016-02-15T04:41:08.356Z,88
2016-02-15T04:42:07.391Z,88
2016-02-15T04:43:06.424Z,88
2016-02-15T04:44:05.599Z,88
2016-02-15T04:45:04.493Z,88
2016-02-15T04:46:03.526Z,88
2016-02-15T04:47:02.560Z,88
2016-02-15T04:48:01.595Z,88
2016-02-15T04:49:00.675Z,88
2016-02-15T04:50:01.693Z,88
2016-02-15T04:51:00.728Z,88
2016-02-15T04:51:59.745Z,88
2016-02-15T04:52:58.796Z,88
2016-02-15T04:53:57.829Z,88
2016-02-15T04:54:56.863Z,88
2016-02-15T04:55:55.898Z,88
2016-02-15T04:56:54.916Z,88
2016-02-15T04:57:53.949Z,88
2016-02-15T04:58:53.061Z,88
2016-02-15T04:59:54.049Z,88
2016-02-15T05:00:53.082Z,88
2016-02-15T05:01:52.117Z,88
2016-02-15T05:02:51.166Z,88
2016-02-15T05:03:50.215Z,88
2016-02-15T05:04:49.219Z,88
2016-02-15T05:05:48.268Z,88
2016-02-15T05:06:47.285Z,88
2016-02-15T05:07:46.321Z,88
2016-02-15T05:08:45.463Z,88
2016-02-15T05:09:46.419Z,88
2016-02-15T05:10:45.454Z,88
2016-02-15T05:11:44.488Z,88
2016-02-15T05:12:43.537Z,88
2016-02-15T05:13:42.587Z,88
2016-02-15T05:14:41.604Z,88
2016-02-15T05:15:40.638Z,88
2016-02-15T05:16:39.688Z,88
2016-02-15T05:17:38.706Z,88
2016-02-15T05:18:37.818Z,88
2016-02-15T05:19:38.790Z,88
2016-02-15T05:20:37.839Z,89
2016-02-15T05:21:37.123Z,88
2016-02-15T05:22:36.157Z,88
2016-02-15T05:23:35.191Z,88
2016-02-15T05:24:34.225Z,89
2016-02-15T05:25:33.509Z,89
2016-02-15T05:26:32.824Z,89
2016-02-15T05:27:32.125Z,89
2016-02-15T05:28:31.423Z,89
2016-02-15T05:29:32.457Z,89
2016-02-15T05:30:31.711Z,89
2016-02-15T05:31:31.041Z,89
2016-02-15T05:32:30.294Z,89
2016-02-15T05:33:29.577Z,89
2016-02-15T05:34:28.877Z,89
2016-02-15T05:35:28.161Z,89
2016-02-15T05:36:27.461Z,89
2016-02-15T05:37:26.994Z,89
2016-02-15T05:38:26.590Z,89
2016-02-15T05:39:27.594Z,89
2016-02-15T05:40:27.143Z,89
2016-02-15T05:41:26.676Z,89
2016-02-15T05:42:26.210Z,89
2016-02-15T05:43:25.760Z,89
2016-02-15T05:44:25.341Z,89
2016-02-15T05:45:24.860Z,89
2016-02-15T05:46:24.378Z,89
2016-02-15T05:47:23.928Z,89
2016-02-15T05:48:23.524Z,89
2016-02-15T05:49:24.542Z,89
2016-02-15T05:50:24.061Z,89
2016-02-15T05:51:23.595Z,89
2016-02-15T05:52:23.160Z,89
2016-02-15T05:53:22.694Z,89
2016-02-15T05:54:22.228Z,89
2016-02-15T05:55:21.809Z,89
2016-02-15T05:56:21.342Z,89
2016-02-15T05:57:20.861Z,89
2016-02-15T05:58:20.458Z,89
2016-02-15T05:59:21.460Z,89
2016-02-15T06:00:21.009Z,89
2016-02-15T06:01:20.543Z,89
2016-02-15T06:02:20.094Z,89
2016-02-15T06:03:19.611Z,89
2016-02-15T06:04:19.099Z,89
2016-02-15T06:05:18.694Z,89
2016-02-15T06:06:18.260Z,89
2016-02-15T06:07:17.794Z,89
2016-02-15T06:08:17.390Z,89
2016-02-15T06:09:18.377Z,89
2016-02-15T06:10:17.927Z,89
2016-02-15T06:11:17.461Z,89
2016-02-15T06:12:17.010Z,89
2016-02-15T06:13:16.544Z,89
2016-02-15T06:14:16.093Z,89
2016-02-15T06:15:15.629Z,89
2016-02-15T06:16:15.162Z,89
2016-02-15T06:17:14.726Z,89
2016-02-15T06:18:14.340Z,89
2016-02-15T06:19:15.326Z,89
2016-02-15T06:20:14.845Z,89
2016-02-15T06:21:14.409Z,89
2016-02-15T06:22:13.943Z,89
2016-02-15T06:23:13.493Z,89
2016-02-15T06:24:13.012Z,89
2016-02-15T06:25:12.670Z,89
2016-02-15T06:26:12.125Z,89
2016-02-15T06:27:11.629Z,89
2016-02-15T06:28:11.239Z,89
2016-02-15T06:29:12.244Z,89
2016-02-15T06:30:11.778Z,89
2016-02-15T06:31:11.325Z,89
2016-02-15T06:32:10.858Z,89
2016-02-15T06:33:10.408Z,89
2016-02-15T06:34:09.942Z,89
2016-02-15T06:35:09.491Z,89
2016-02-15T06:36:09.025Z,89
2016-02-15T06:37:08.560Z,89
2016-02-15T06:38:08.155Z,89
2016-02-15T06:39:09.159Z,89
2016-02-15T06:40:08.708Z,89
2016-02-15T06:41:08.241Z,89
2016-02-15T06:42:07.824Z,89
2016-02-15T06:43:07.326Z,89
2016-02-15T06:44:06.874Z,89
2016-02-15T06:45:06.409Z,89
2016-02-15T06:46:05.959Z,89
2016-02-15T06:47:05.492Z,89
2016-02-15T06:48:05.090Z,89
2016-02-15T06:49:06.092Z,89
2016-02-15T06:50:05.640Z,89
2016-02-15T06:51:05.301Z,89
2016-02-15T06:52:04.975Z,89
2016-02-15T06:53:04.789Z,89
2016-02-15T06:54:04.324Z,89
2016-02-15T06:55:03.873Z,89
2016-02-15T06:56:03.392Z,89
2016-02-15T06:57:02.942Z,89
2016-02-15T06:58:02.803Z,89
2016-02-15T06:59:03.806Z,89
2016-02-15T07:00:03.606Z,89
2016-02-15T07:01:03.389Z,89
2016-02-15T07:02:03.189Z,89
2016-02-15T07:03:02.770Z,89
2016-02-15T07:04:02.288Z,89
2016-02-15T07:05:01.806Z,89
2016-02-15T07:06:01.372Z,89
2016-02-15T07:07:00.905Z,89
2016-02-15T07:08:00.533Z,89
2016-02-15T07:09:01.521Z,89
2016-02-15T07:10:01.054Z,89
2016-02-15T07:11:00.572Z,89
2016-02-15T07:12:00.154Z,89
2016-02-15T07:12:59.702Z,89
2016-02-15T07:13:59.347Z,89
2016-02-15T07:14:58.755Z,89
2016-02-15T07:15:58.398Z,89
2016-02-15T07:16:57.839Z,89
2016-02-15T07:17:57.451Z,89
2016-02-15T07:18:58.469Z,89
2016-02-15T07:19:58.018Z,89
2016-02-15T07:20:57.787Z,89
2016-02-15T07:21:57.602Z,89
2016-02-15T07:22:57.371Z,89
2016-02-15T07:23:56.905Z,89
2016-02-15T07:24:56.438Z,89
2016-02-15T07:25:55.988Z,89
2016-02-15T07:26:55.772Z,89
2016-02-15T07:27:55.649Z,89
2016-02-15T07:28:56.636Z,89
2016-02-15T07:29:56.436Z,89
2016-02-15T07:30:55.970Z,89
2016-02-15T07:31:55.567Z,89
2016-02-15T07:32:55.069Z,89
2016-02-15T07:33:54.588Z,89
2016-02-15T07:34:54.122Z,89
2016-02-15T07:35:53.671Z,89
2016-02-15T07:36:53.236Z,89
2016-02-15T07:37:52.802Z,89
2016-02-15T07:38:53.929Z,89
2016-02-15T07:39:53.370Z,89
2016-02-15T07:40:52.950Z,89
2016-02-15T07:41:52.438Z,89
2016-02-15T07:42:52.112Z,89
2016-02-15T07:43:51.521Z,89
2016-02-15T07:44:51.071Z,89
2016-02-15T07:45:50.745Z,89
2016-02-15T07:46:50.123Z,89
2016-02-15T07:47:49.500Z,89
2016-02-15T07:48:50.488Z,89
2016-02-15T07:49:49.756Z,89
2016-02-15T07:50:49.055Z,89
2016-02-15T07:51:48.339Z,89
2016-02-15T07:52:47.639Z,89
2016-02-15T07:53:46.907Z,89
2016-02-15T07:54:46.190Z,89
2016-02-15T07:55:45.475Z,88
2016-02-15T07:56:44.525Z,88
2016-02-15T07:57:43.606Z,88
2016-02-15T07:58:44.608Z,88
2016-02-15T07:59:43.642Z,88
2016-02-15T08:00:42.676Z,88
2016-02-15T08:01:41.709Z,88
2016-02-15T08:02:40.775Z,88
2016-02-15T08:03:39.778Z,88
2016-02-15T08:04:38.797Z,88
2016-02-15T08:05:37.845Z,88
2016-02-15T08:06:36.895Z,88
2016-02-15T08:07:35.975Z,88
2016-02-15T08:08:36.978Z,88
2016-02-15T08:09:36.013Z,88
2016-02-15T08:10:35.030Z,88
2016-02-15T08:11:34.065Z,88
2016-02-15T08:12:33.099Z,88
2016-02-15T08:13:31.867Z,88
2016-02-15T08:14:30.652Z,88
2016-02-15T08:15:29.435Z,88
2016-02-15T08:16:28.218Z,88
2016-02-15T08:17:27.050Z,88
2016-02-15T08:18:28.052Z,88
2016-02-15T08:19:26.587Z,88
2016-02-15T08:20:25.167Z,88
2016-02-15T08:21:23.638Z,88
2016-02-15T08:22:22.173Z,88
2016-02-15T08:23:20.691Z,88
2016-02-15T08:24:19.209Z,88
2016-02-15T08:25:17.742Z,88
2016-02-15T08:26:16.277Z,88
2016-02-15T08:27:14.858Z,88
2016-02-15T08:28:15.860Z,88
2016-02-15T08:29:14.395Z,88
2016-02-15T08:30:12.910Z,88
2016-02-15T08:31:11.428Z,88
2016-02-15T08:32:09.962Z,88
2016-02-15T08:33:08.542Z,88
2016-02-15T08:34:06.999Z,88
2016-02-15T08:35:05.533Z,88
2016-02-15T08:36:04.067Z,88
2016-02-15T08:37:02.633Z,88
2016-02-15T08:38:03.635Z,88
2016-02-15T08:39:02.168Z,88
2016-02-15T08:40:00.686Z,88
2016-02-15T08:40:59.222Z,88
2016-02-15T08:41:57.864Z,88
2016-02-15T08:42:56.273Z,88
2016-02-15T08:43:54.792Z,88
2016-02-15T08:44:53.357Z,88
2016-02-15T08:45:51.844Z,88
2016-02-15T08:46:50.440Z,88
2016-02-15T08:47:51.427Z,88
2016-02-15T08:48:49.960Z,88
2016-02-15T08:49:48.730Z,88
2016-02-15T08:50:47.513Z,88
2016-02-15T08:51:46.328Z,88
2016-02-15T08:52:45.097Z,88
2016-02-15T08:53:43.615Z,88
2016-02-15T08:54:42.133Z,87
2016-02-15T08:55:40.137Z,86
2016-02-15T08:56:37.967Z,86
2016-02-15T08:57:38.970Z,85
2016-02-15T08:58:40.020Z,85
2016-02-15T08:59:41.084Z,85
2016-02-15T09:00:41.900Z,84
2016-02-15T09:01:42.450Z,84
2016-02-15T09:02:42.998Z,84
2016-02-15T09:03:43.314Z,84
2016-02-15T09:04:43.863Z,84
2016-02-15T09:05:44.414Z,85
2016-02-15T09:06:45.275Z,85
2016-02-15T09:07:46.294Z,85
2016-02-15T09:08:47.358Z,85
2016-02-15T09:09:48.408Z,85
2016-02-15T09:10:49.739Z,86
2016-02-15T09:11:51.288Z,86
2016-02-15T09:12:52.854Z,86
2016-02-15T09:13:54.419Z,86
2016-02-15T09:14:52.192Z,87
2016-02-15T09:15:50.225Z,87
2016-02-15T09:16:48.290Z,87
2016-02-15T09:17:49.293Z,87
2016-02-15T09:18:47.311Z,87
2016-02-15T09:19:45.580Z,87
2016-02-15T09:20:43.879Z,87
2016-02-15T09:21:42.397Z,87
2016-02-15T09:22:40.931Z,87
2016-02-15T09:23:39.450Z,87
2016-02-15T09:24:37.983Z,87
2016-02-15T09:25:36.517Z,87
2016-02-15T09:26:35.099Z,87
2016-02-15T09:27:36.101Z,87
2016-02-15T09:28:34.650Z,87
2016-02-15T09:29:33.153Z,87
2016-02-15T09:30:31.202Z,86
2016-02-15T09:31:28.987Z,86
2016-02-15T09:32:30.505Z,85
2016-02-15T09:33:31.554Z,85
2016-02-15T09:34:32.620Z,84
2016-02-15T09:35:33.294Z,84
2016-02-15T09:36:33.797Z,84
2016-02-15T09:37:34.924Z,84
2016-02-15T09:38:35.131Z,83
2016-02-15T09:39:35.148Z,83
2016-02-15T09:40:35.307Z,84
2016-02-15T09:41:35.498Z,84
2016-02-15T09:42:35.813Z,84
2016-02-15T09:43:36.378Z,84
2016-02-15T09:44:36.929Z,84
2016-02-15T09:45:37.728Z,85
2016-02-15T09:46:38.870Z,85
2016-02-15T09:47:39.859Z,85
2016-02-15T09:48:40.908Z,85
2016-02-15T09:49:42.222Z,86
2016-02-15T09:50:43.914Z,86
2016-02-15T09:51:45.400Z,86
2016-02-15T09:52:46.981Z,86
2016-02-15T09:53:48.531Z,86
2016-02-15T09:54:50.064Z,86
2016-02-15T09:55:51.677Z,86
2016-02-15T09:56:53.272Z,86
2016-02-15T09:57:54.307Z,86
2016-02-15T09:58:55.841Z,86
2016-02-15T09:59:57.437Z,86
2016-02-15T10:00:58.987Z,86
2016-02-15T10:02:00.583Z,86
2016-02-15T10:03:02.117Z,86
2016-02-15T10:04:03.729Z,86
2016-02-15T10:05:05.279Z,86
2016-02-15T10:06:06.954Z,86
2016-02-15T10:07:08.471Z,86
2016-02-15T10:08:09.459Z,86
2016-02-15T10:09:10.977Z,86
2016-02-15T10:10:12.621Z,86
2016-02-15T10:11:14.201Z,86
2016-02-15T10:12:15.737Z,86
2016-02-15T10:13:13.518Z,86
2016-02-15T10:14:11.287Z,86
2016-02-15T10:15:09.102Z,86
2016-02-15T10:16:06.840Z,86
2016-02-15T10:17:08.467Z,86
2016-02-15T10:18:09.392Z,86
2016-02-15T10:19:11.049Z,86
2016-02-15T10:20:12.569Z,86
2016-02-15T10:21:14.137Z,86
2016-02-15T10:22:15.679Z,86
2016-02-15T10:23:17.248Z,86
2016-02-15T10:24:15.014Z,87
2016-02-15T10:25:13.027Z,87
2016-02-15T10:26:11.058Z,87
2016-02-15T10:27:09.227Z,87
2016-02-15T10:28:10.131Z,87
2016-02-15T10:29:08.692Z,87
2016-02-15T10:30:07.162Z,87
2016-02-15T10:31:05.709Z,87
2016-02-15T10:32:04.335Z,88
2016-02-15T10:33:03.023Z,88
2016-02-15T10:34:01.774Z,88
2016-02-15T10:35:00.823Z,88
2016-02-15T10:35:59.872Z,88
2016-02-15T10:36:58.953Z,88
2016-02-15T10:37:59.940Z,88
2016-02-15T10:38:58.973Z,88
2016-02-15T10:39:58.007Z,88
2016-02-15T10:40:57.040Z,88
2016-02-15T10:41:56.090Z,88
2016-02-15T10:42:55.108Z,88
2016-02-15T10:43:54.141Z,88
2016-02-15T10:44:53.175Z,88
2016-02-15T10:45:52.193Z,88
2016-02-15T10:46:51.305Z,88
2016-02-15T10:47:52.293Z,88
2016-02-15T10:48:51.342Z,88
2016-02-15T10:49:50.361Z,88
2016-02-15T10:50:49.394Z,88
2016-02-15T10:51:48.584Z,88
2016-02-15T10:52:47.463Z,88
2016-02-15T10:53:46.496Z,88
2016-02-15T10:54:45.654Z,88
2016-02-15T10:55:44.565Z,88
2016-02-15T10:56:43.660Z,88
2016-02-15T10:57:44.663Z,88
2016-02-15T10:58:43.698Z,88
2016-02-15T10:59:42.856Z,88
2016-02-15T11:00:41.781Z,88
2016-02-15T11:01:40.923Z,88
2016-02-15T11:02:39.692Z,88
2016-02-15T11:03:38.633Z,88
2016-02-15T11:04:37.775Z,88
2016-02-15T11:05:36.810Z,88
2016-02-15T11:06:35.922Z,88
2016-02-15T11:07:36.783Z,88
2016-02-15T11:08:35.834Z,89
2016-02-15T11:09:35.117Z,89
2016-02-15T11:10:34.666Z,89
2016-02-15T11:11:34.201Z,89
2016-02-15T11:12:33.735Z,89
2016-02-15T11:13:33.300Z,89
2016-02-15T11:14:32.819Z,89
2016-02-15T11:15:32.602Z,89
2016-02-15T11:16:32.480Z,89
2016-02-15T11:17:33.466Z,90
2016-02-15T11:18:33.641Z,90
2016-02-15T11:19:33.676Z,90
2016-02-15T11:20:33.740Z,90
2016-02-15T11:21:33.775Z,90
2016-02-15T11:22:33.715Z,90
2016-02-15T11:23:33.748Z,90
2016-02-15T11:24:33.799Z,90
2016-02-15T11:25:33.848Z,90
2016-02-15T11:26:34.209Z,90
2016-02-15T11:27:35.213Z,91
2016-02-15T11:28:35.762Z,91
2016-02-15T11:29:36.437Z,91
2016-02-15T11:30:36.862Z,91
2016-02-15T11:31:37.426Z,91
2016-02-15T11:32:37.976Z,91
2016-02-15T11:33:38.650Z,91
2016-02-15T11:34:39.091Z,91
2016-02-15T11:35:39.781Z,91
2016-02-15T11:36:40.361Z,91
2016-02-15T11:37:41.256Z,91
2016-02-15T11:38:41.805Z,91
2016-02-15T11:39:42.369Z,91
2016-02-15T11:40:43.278Z,91
2016-02-15T11:41:43.969Z,91
2016-02-15T11:42:44.784Z,91
2016-02-15T11:43:45.583Z,91
2016-02-15T11:44:46.399Z,91
2016-02-15T11:45:47.324Z,91
2016-02-15T11:46:48.311Z,91
2016-02-15T11:47:49.329Z,91
2016-02-15T11:48:50.410Z,91
2016-02-15T11:49:51.444Z,91
2016-02-15T11:50:52.509Z,91
2016-02-15T11:51:53.590Z,91
2016-02-15T11:52:54.749Z,91
2016-02-15T11:53:55.688Z,91
2016-02-15T11:54:56.895Z,91
2016-02-15T11:55:57.804Z,91
2016-02-15T11:56:58.931Z,91
2016-02-15T11:57:59.934Z,91
2016-02-15T11:59:00.984Z,91
2016-02-15T12:00:02.095Z,91
2016-02-15T12:01:03.114Z,91
2016-02-15T12:02:04.164Z,92
2016-02-15T12:03:05.588Z,92
2016-02-15T12:04:06.794Z,92
2016-02-15T12:05:08.093Z,92
2016-02-15T12:06:09.409Z,92
2016-02-15T12:07:10.911Z,92
2016-02-15T12:08:11.789Z,92
2016-02-15T12:09:13.104Z,92
2016-02-15T12:10:14.419Z,92
2016-02-15T12:11:16.109Z,92
2016-02-15T12:12:17.552Z,92
2016-02-15T12:13:19.133Z,92
2016-02-15T12:14:20.683Z,92
2016-02-15T12:15:22.248Z,92
2016-02-15T12:16:23.938Z,92
2016-02-15T12:17:25.550Z,92
2016-02-15T12:18:26.444Z,92
2016-02-15T12:19:28.009Z,92
2016-02-15T12:20:29.699Z,92
2016-02-15T12:22:32.721Z,92
2016-02-15T12:23:34.394Z,92
2016-02-15T12:24:35.851Z,92
2016-02-15T12:25:37.416Z,92
2016-02-15T12:26:38.996Z,92
2016-02-15T12:27:40.609Z,92
2016-02-15T12:28:41.611Z,92
2016-02-15T12:29:43.176Z,92
2016-02-15T12:30:44.742Z,92
2016-02-15T12:31:46.431Z,92
2016-02-15T12:32:47.981Z,92
2016-02-15T12:33:49.437Z,92
2016-02-15T12:34:51.017Z,92
2016-02-15T12:35:52.567Z,92
2016-02-15T12:36:54.148Z,92
2016-02-15T12:37:55.761Z,92
2016-02-15T12:38:56.763Z,92
2016-02-15T12:39:58.437Z,92
2016-02-15T12:41:00.019Z,92
2016-02-15T12:42:01.599Z,92
2016-02-15T12:43:03.040Z,92
2016-02-15T12:44:04.605Z,92
2016-02-15T12:45:06.170Z,93
2016-02-15T12:46:03.938Z,93
2016-02-15T12:47:01.706Z,93
2016-02-15T12:47:59.521Z,92
2016-02-15T12:49:00.524Z,93
2016-02-15T12:49:58.402Z,93
2016-02-15T12:51:53.829Z,93
2016-02-15T12:52:51.582Z,93
2016-02-15T12:53:49.366Z,93
2016-02-15T12:54:47.118Z,93
2016-02-15T12:55:44.902Z,93
2016-02-15T12:56:42.655Z,93
2016-02-15T12:57:40.471Z,93
2016-02-15T12:58:41.473Z,93
2016-02-15T12:59:39.240Z,93
2016-02-15T13:00:37.010Z,93
2016-02-15T13:01:35.043Z,93
2016-02-15T13:02:32.795Z,93
2016-02-15T13:03:30.581Z,93
2016-02-15T13:05:26.617Z,93
2016-02-15T13:06:24.745Z,93
2016-02-15T13:07:22.716Z,93
2016-02-15T13:08:23.719Z,93
2016-02-15T13:09:21.753Z,93
2016-02-15T13:10:19.880Z,93
2016-02-15T13:11:17.895Z,93
2016-02-15T13:12:15.789Z,93
2016-02-15T13:13:13.823Z,93
2016-02-15T13:14:11.858Z,93
2016-02-15T13:15:09.860Z,93
2016-02-15T13:16:07.893Z,93
2016-02-15T13:17:05.975Z,93
2016-02-15T13:18:06.961Z,93
2016-02-15T13:19:04.979Z,93
2016-02-15T13:20:02.999Z,93
2016-02-15T13:21:01.016Z,93
2016-02-15T13:21:59.175Z,93
2016-02-15T13:22:57.069Z,93
2016-02-15T13:23:55.102Z,93
2016-02-15T13:24:53.105Z,93
2016-02-15T13:25:51.249Z,93
2016-02-15T13:26:49.313Z,93
2016-02-15T13:27:50.207Z,93
2016-02-15T13:28:48.226Z,93
2016-02-15T13:29:46.369Z,93
2016-02-15T13:30:44.262Z,93
2016-02-15T13:31:42.296Z,93
2016-02-15T13:32:40.423Z,93
2016-02-15T13:33:38.332Z,93
2016-02-15T13:34:36.334Z,93
2016-02-15T13:35:34.369Z,93
2016-02-15T13:36:32.560Z,93
2016-02-15T13:37:33.578Z,93
2016-02-15T13:38:31.470Z,93
2016-02-15T13:39:29.490Z,93
2016-02-15T13:40:27.508Z,93
2016-02-15T13:41:25.541Z,93
2016-02-15T13:43:21.578Z,93
2016-02-15T13:44:19.612Z,93
2016-02-15T13:45:17.753Z,93
2016-02-15T13:46:15.740Z,93
2016-02-15T13:47:16.711Z,93
2016-02-15T13:48:14.730Z,93
2016-02-15T13:49:12.872Z,93
2016-02-15T13:50:10.891Z,93
2016-02-15T13:51:08.800Z,93
2016-02-15T13:52:06.818Z,93
2016-02-15T13:53:04.838Z,93
2016-02-15T13:54:02.855Z,93
2016-02-15T13:55:00.873Z,93
2016-02-15T13:55:59.080Z,93
2016-02-15T13:56:59.973Z,93
2016-02-15T13:57:57.975Z,93
2016-02-15T13:58:56.119Z,93
2016-02-15T13:59:54.027Z,93
2016-02-15T14:00:52.046Z,93
2016-02-15T14:01:50.065Z,93
2016-02-15T14:02:48.082Z,93
2016-02-15T14:03:46.226Z,93
2016-02-15T14:04:44.134Z,93
2016-02-15T14:05:42.325Z,93
2016-02-15T14:06:43.328Z,93
2016-02-15T14:07:41.221Z,93
2016-02-15T14:08:39.364Z,93
2016-02-15T14:09:37.398Z,93
2016-02-15T14:10:35.292Z,93
2016-02-15T14:11:33.559Z,93
2016-02-15T14:12:31.844Z,93
2016-02-15T14:13:29.862Z,93
2016-02-15T14:14:28.005Z,93
2016-02-15T14:15:26.087Z,93